sensor_id;sensor_type;location;lat;lon;timestamp;temperature;humidity
12632;DHT22;6381;45.748;12.106;2023-04-26T00:01:30;10.20;99.90
12632;DHT22;6381;45.748;12.106;2023-04-26T00:03:59;10.00;99.90
12632;DHT22;6381;45.748;12.106;2023-04-26T00:06:28;10.10;99.90
12632;DHT22;6381;45.748;12.106;2023-04-26T00:08:57;10.10;99.90
12632;DHT22;6381;45.748;12.106;2023-04-26T00:11:27;10.00;99.90
12632;DHT22;6381;45.748;12.106;2023-04-26T00:13:57;9.90;99.90
12632;DHT22;6381;45.748;12.106;2023-04-26T00:16:26;9.80;99.90
12632;DHT22;6381;45.748;12.106;2023-04-26T00:21:24;9.70;99.90
12632;DHT22;6381;45.748;12.106;2023-04-26T00:23:53;9.90;99.90
12632;DHT22;6381;45.748;12.106;2023-04-26T00:26:22;10.00;99.90
12632;DHT22;6381;45.748;12.106;2023-04-26T00:28:52;10.20;99.90
12632;DHT22;6381;45.748;12.106;2023-04-26T00:31:21;10.20;99.90
12632;DHT22;6381;45.748;12.106;2023-04-26T00:33:50;10.40;99.90
12632;DHT22;6381;45.748;12.106;2023-04-26T00:36:19;10.40;99.90
12632;DHT22;6381;45.748;12.106;2023-04-26T00:38:48;10.70;99.90
12632;DHT22;6381;45.748;12.106;2023-04-26T00:41:17;10.40;99.90
12632;DHT22;6381;45.748;12.106;2023-04-26T00:43:46;10.20;99.90
12632;DHT22;6381;45.748;12.106;2023-04-26T00:46:16;10.30;99.90
12632;DHT22;6381;45.748;12.106;2023-04-26T00:48:45;10.40;99.90
12632;DHT22;6381;45.748;12.106;2023-04-26T00:51:14;10.30;99.90
12632;DHT22;6381;45.748;12.106;2023-04-26T00:53:43;10.30;99.90
12632;DHT22;6381;45.748;12.106;2023-04-26T00:56:12;10.10;99.90
12632;DHT22;6381;45.748;12.106;2023-04-26T00:58:42;10.20;99.90
12632;DHT22;6381;45.748;12.106;2023-04-26T01:01:12;10.20;99.90
12632;DHT22;6381;45.748;12.106;2023-04-26T01:03:42;10.20;99.90
12632;DHT22;6381;45.748;12.106;2023-04-26T01:06:13;10.00;99.90
12632;DHT22;6381;45.748;12.106;2023-04-26T01:08:42;10.10;99.90
12632;DHT22;6381;45.748;12.106;2023-04-26T01:11:11;10.00;99.90
12632;DHT22;6381;45.748;12.106;2023-04-26T01:13:41;9.70;99.90
12632;DHT22;6381;45.748;12.106;2023-04-26T01:16:13;9.60;99.90
12632;DHT22;6381;45.748;12.106;2023-04-26T01:18:49;9.60;99.90
12632;DHT22;6381;45.748;12.106;2023-04-26T01:21:19;9.70;99.90
12632;DHT22;6381;45.748;12.106;2023-04-26T01:23:50;9.70;99.90
12632;DHT22;6381;45.748;12.106;2023-04-26T01:26:19;9.70;99.90
12632;DHT22;6381;45.748;12.106;2023-04-26T01:28:48;9.70;99.90
12632;DHT22;6381;45.748;12.106;2023-04-26T01:31:17;9.80;99.90
12632;DHT22;6381;45.748;12.106;2023-04-26T01:33:46;9.80;99.90
12632;DHT22;6381;45.748;12.106;2023-04-26T01:36:15;9.70;99.90
12632;DHT22;6381;45.748;12.106;2023-04-26T01:38:43;9.90;99.90
12632;DHT22;6381;45.748;12.106;2023-04-26T01:41:15;10.00;99.90
12632;DHT22;6381;45.748;12.106;2023-04-26T01:43:43;9.90;99.90
12632;DHT22;6381;45.748;12.106;2023-04-26T01:46:12;10.00;99.90
12632;DHT22;6381;45.748;12.106;2023-04-26T01:48:41;9.90;99.90
12632;DHT22;6381;45.748;12.106;2023-04-26T01:51:10;9.50;99.90
12632;DHT22;6381;45.748;12.106;2023-04-26T01:53:38;9.30;99.90
12632;DHT22;6381;45.748;12.106;2023-04-26T01:56:08;9.40;99.90
12632;DHT22;6381;45.748;12.106;2023-04-26T01:58:39;9.70;99.90
12632;DHT22;6381;45.748;12.106;2023-04-26T02:01:09;9.80;99.90
12632;DHT22;6381;45.748;12.106;2023-04-26T02:03:38;9.70;99.90
12632;DHT22;6381;45.748;12.106;2023-04-26T02:06:07;9.80;99.90
12632;DHT22;6381;45.748;12.106;2023-04-26T02:08:36;9.80;99.90
12632;DHT22;6381;45.748;12.106;2023-04-26T02:11:05;9.40;99.90
12632;DHT22;6381;45.748;12.106;2023-04-26T02:13:35;9.50;99.90
12632;DHT22;6381;45.748;12.106;2023-04-26T02:16:06;9.50;99.90
12632;DHT22;6381;45.748;12.106;2023-04-26T02:18:35;9.50;99.90
12632;DHT22;6381;45.748;12.106;2023-04-26T02:21:07;9.20;99.90
12632;DHT22;6381;45.748;12.106;2023-04-26T02:23:37;9.20;99.90
12632;DHT22;6381;45.748;12.106;2023-04-26T02:26:06;9.30;99.90
12632;DHT22;6381;45.748;12.106;2023-04-26T02:28:34;9.20;99.90
12632;DHT22;6381;45.748;12.106;2023-04-26T02:31:05;9.20;99.90
12632;DHT22;6381;45.748;12.106;2023-04-26T02:33:34;9.10;99.90
12632;DHT22;6381;45.748;12.106;2023-04-26T02:36:03;9.00;99.90
12632;DHT22;6381;45.748;12.106;2023-04-26T02:38:33;9.40;99.90
12632;DHT22;6381;45.748;12.106;2023-04-26T02:41:04;9.00;99.90
12632;DHT22;6381;45.748;12.106;2023-04-26T02:43:33;8.60;99.90
12632;DHT22;6381;45.748;12.106;2023-04-26T02:46:02;8.20;99.90
12632;DHT22;6381;45.748;12.106;2023-04-26T02:48:35;8.50;99.90
12632;DHT22;6381;45.748;12.106;2023-04-26T02:51:06;8.80;99.90
12632;DHT22;6381;45.748;12.106;2023-04-26T02:53:35;8.60;99.90
12632;DHT22;6381;45.748;12.106;2023-04-26T02:56:06;8.80;99.90
12632;DHT22;6381;45.748;12.106;2023-04-26T02:58:35;8.90;99.90
12632;DHT22;6381;45.748;12.106;2023-04-26T03:01:04;8.80;99.90
12632;DHT22;6381;45.748;12.106;2023-04-26T03:03:35;8.70;99.90
12632;DHT22;6381;45.748;12.106;2023-04-26T03:06:04;8.40;99.90
12632;DHT22;6381;45.748;12.106;2023-04-26T03:08:33;8.50;99.90
12632;DHT22;6381;45.748;12.106;2023-04-26T03:11:03;8.70;99.90
12632;DHT22;6381;45.748;12.106;2023-04-26T03:13:33;8.90;99.90
12632;DHT22;6381;45.748;12.106;2023-04-26T03:16:04;8.80;99.90
12632;DHT22;6381;45.748;12.106;2023-04-26T03:18:35;8.80;99.90
12632;DHT22;6381;45.748;12.106;2023-04-26T03:21:05;8.80;99.90
12632;DHT22;6381;45.748;12.106;2023-04-26T03:23:34;8.80;99.90
12632;DHT22;6381;45.748;12.106;2023-04-26T03:26:03;9.00;99.90
12632;DHT22;6381;45.748;12.106;2023-04-26T03:28:32;9.00;99.90
12632;DHT22;6381;45.748;12.106;2023-04-26T03:31:01;8.70;99.90
12632;DHT22;6381;45.748;12.106;2023-04-26T03:33:31;9.00;99.90
12632;DHT22;6381;45.748;12.106;2023-04-26T03:36:01;9.10;99.90
12632;DHT22;6381;45.748;12.106;2023-04-26T03:38:30;9.10;99.90
12632;DHT22;6381;45.748;12.106;2023-04-26T03:40:59;9.00;99.90
12632;DHT22;6381;45.748;12.106;2023-04-26T03:43:29;8.70;99.90
12632;DHT22;6381;45.748;12.106;2023-04-26T03:45:59;8.80;99.90
12632;DHT22;6381;45.748;12.106;2023-04-26T03:48:28;8.80;99.90
12632;DHT22;6381;45.748;12.106;2023-04-26T03:50:57;8.70;99.90
12632;DHT22;6381;45.748;12.106;2023-04-26T03:53:29;8.70;99.90
12632;DHT22;6381;45.748;12.106;2023-04-26T03:55:57;8.60;99.90
12632;DHT22;6381;45.748;12.106;2023-04-26T03:58:27;8.40;99.90
12632;DHT22;6381;45.748;12.106;2023-04-26T04:00:56;8.40;99.90
12632;DHT22;6381;45.748;12.106;2023-04-26T04:03:25;8.40;99.90
12632;DHT22;6381;45.748;12.106;2023-04-26T04:05:56;8.40;99.90
12632;DHT22;6381;45.748;12.106;2023-04-26T04:08:25;8.50;99.90
12632;DHT22;6381;45.748;12.106;2023-04-26T04:10:55;8.50;99.90
12632;DHT22;6381;45.748;12.106;2023-04-26T04:13:25;8.70;99.90
12632;DHT22;6381;45.748;12.106;2023-04-26T04:15:54;8.70;99.90
12632;DHT22;6381;45.748;12.106;2023-04-26T04:18:23;8.50;99.90
12632;DHT22;6381;45.748;12.106;2023-04-26T04:20:53;8.70;99.90
12632;DHT22;6381;45.748;12.106;2023-04-26T04:23:22;8.90;99.90
12632;DHT22;6381;45.748;12.106;2023-04-26T04:25:52;8.90;99.90
12632;DHT22;6381;45.748;12.106;2023-04-26T04:28:23;8.90;99.90
12632;DHT22;6381;45.748;12.106;2023-04-26T04:30:52;9.00;99.90
12632;DHT22;6381;45.748;12.106;2023-04-26T04:33:24;8.90;99.90
12632;DHT22;6381;45.748;12.106;2023-04-26T04:35:56;9.10;99.90
12632;DHT22;6381;45.748;12.106;2023-04-26T04:38:25;9.10;99.90
12632;DHT22;6381;45.748;12.106;2023-04-26T04:40:54;9.20;99.90
12632;DHT22;6381;45.748;12.106;2023-04-26T04:43:25;9.30;99.90
12632;DHT22;6381;45.748;12.106;2023-04-26T04:45:54;9.10;99.90
12632;DHT22;6381;45.748;12.106;2023-04-26T04:48:25;9.10;99.90
12632;DHT22;6381;45.748;12.106;2023-04-26T04:50:54;9.10;99.90
12632;DHT22;6381;45.748;12.106;2023-04-26T04:53:24;9.30;99.90
12632;DHT22;6381;45.748;12.106;2023-04-26T04:55:53;9.60;99.90
12632;DHT22;6381;45.748;12.106;2023-04-26T04:58:24;9.60;99.90
12632;DHT22;6381;45.748;12.106;2023-04-26T05:00:54;9.50;99.90
12632;DHT22;6381;45.748;12.106;2023-04-26T05:03:27;9.50;99.90
12632;DHT22;6381;45.748;12.106;2023-04-26T05:05:56;9.60;99.90
12632;DHT22;6381;45.748;12.106;2023-04-26T05:08:25;9.80;99.90
12632;DHT22;6381;45.748;12.106;2023-04-26T05:11:00;9.90;99.90
12632;DHT22;6381;45.748;12.106;2023-04-26T05:13:31;9.90;99.90
12632;DHT22;6381;45.748;12.106;2023-04-26T05:15:59;10.20;99.90
12632;DHT22;6381;45.748;12.106;2023-04-26T05:18:29;10.10;99.50
12632;DHT22;6381;45.748;12.106;2023-04-26T05:21:00;9.90;99.90
12632;DHT22;6381;45.748;12.106;2023-04-26T05:23:29;9.70;99.90
12632;DHT22;6381;45.748;12.106;2023-04-26T05:26:00;9.80;99.90
12632;DHT22;6381;45.748;12.106;2023-04-26T05:28:52;10.30;99.90
12632;DHT22;6381;45.748;12.106;2023-04-26T05:31:39;10.40;99.90
12632;DHT22;6381;45.748;12.106;2023-04-26T05:34:27;10.70;99.90
12632;DHT22;6381;45.748;12.106;2023-04-26T05:36:57;10.80;99.90
12632;DHT22;6381;45.748;12.106;2023-04-26T05:39:26;10.90;99.60
12632;DHT22;6381;45.748;12.106;2023-04-26T05:41:55;11.00;99.30
12632;DHT22;6381;45.748;12.106;2023-04-26T05:44:26;11.10;98.20
12632;DHT22;6381;45.748;12.106;2023-04-26T05:46:55;11.20;97.90
12632;DHT22;6381;45.748;12.106;2023-04-26T05:49:25;11.20;97.00
12632;DHT22;6381;45.748;12.106;2023-04-26T05:51:54;11.40;97.50
12632;DHT22;6381;45.748;12.106;2023-04-26T05:54:23;11.60;97.40
12632;DHT22;6381;45.748;12.106;2023-04-26T05:56:52;11.60;97.40
12632;DHT22;6381;45.748;12.106;2023-04-26T05:59:25;11.70;97.50
12632;DHT22;6381;45.748;12.106;2023-04-26T06:01:54;11.90;97.80
12632;DHT22;6381;45.748;12.106;2023-04-26T06:04:23;12.00;97.80
12632;DHT22;6381;45.748;12.106;2023-04-26T06:07:07;12.00;97.30
12632;DHT22;6381;45.748;12.106;2023-04-26T06:09:37;12.00;97.70
12632;DHT22;6381;45.748;12.106;2023-04-26T06:12:06;11.80;98.40
12632;DHT22;6381;45.748;12.106;2023-04-26T06:14:40;12.00;99.20
12632;DHT22;6381;45.748;12.106;2023-04-26T06:17:14;12.20;98.90
12632;DHT22;6381;45.748;12.106;2023-04-26T06:19:43;12.30;98.80
12632;DHT22;6381;45.748;12.106;2023-04-26T06:22:12;12.40;99.10
12632;DHT22;6381;45.748;12.106;2023-04-26T06:24:41;12.40;99.10
12632;DHT22;6381;45.748;12.106;2023-04-26T06:27:10;12.30;99.30
12632;DHT22;6381;45.748;12.106;2023-04-26T06:29:47;12.40;99.40
12632;DHT22;6381;45.748;12.106;2023-04-26T06:32:17;12.50;99.60
12632;DHT22;6381;45.748;12.106;2023-04-26T06:34:46;12.70;99.90
12632;DHT22;6381;45.748;12.106;2023-04-26T06:37:15;12.80;99.80
12632;DHT22;6381;45.748;12.106;2023-04-26T06:39:43;12.80;99.30
12632;DHT22;6381;45.748;12.106;2023-04-26T06:42:12;12.80;99.60
12632;DHT22;6381;45.748;12.106;2023-04-26T06:45:06;12.80;99.50
12632;DHT22;6381;45.748;12.106;2023-04-26T06:47:36;12.80;99.20
12632;DHT22;6381;45.748;12.106;2023-04-26T06:50:06;13.00;99.90
12632;DHT22;6381;45.748;12.106;2023-04-26T06:52:35;13.20;99.50
12632;DHT22;6381;45.748;12.106;2023-04-26T06:55:04;13.00;99.60
12632;DHT22;6381;45.748;12.106;2023-04-26T06:57:33;13.00;99.90
12632;DHT22;6381;45.748;12.106;2023-04-26T07:00:03;13.20;99.80
12632;DHT22;6381;45.748;12.106;2023-04-26T07:02:33;13.20;99.50
12632;DHT22;6381;45.748;12.106;2023-04-26T07:05:02;13.50;99.10
12632;DHT22;6381;45.748;12.106;2023-04-26T07:07:31;13.40;99.20
12632;DHT22;6381;45.748;12.106;2023-04-26T07:10:00;13.60;99.00
12632;DHT22;6381;45.748;12.106;2023-04-26T07:12:29;13.70;98.90
12632;DHT22;6381;45.748;12.106;2023-04-26T07:14:58;13.60;99.00
12632;DHT22;6381;45.748;12.106;2023-04-26T07:17:27;13.60;99.00
12632;DHT22;6381;45.748;12.106;2023-04-26T07:19:57;13.70;99.00
12632;DHT22;6381;45.748;12.106;2023-04-26T07:22:26;13.80;99.00
12632;DHT22;6381;45.748;12.106;2023-04-26T07:24:55;13.70;99.00
12632;DHT22;6381;45.748;12.106;2023-04-26T07:27:24;13.80;98.30
12632;DHT22;6381;45.748;12.106;2023-04-26T07:29:53;13.90;98.80
12632;DHT22;6381;45.748;12.106;2023-04-26T07:32:23;14.00;98.60
12632;DHT22;6381;45.748;12.106;2023-04-26T07:34:52;14.10;98.40
12632;DHT22;6381;45.748;12.106;2023-04-26T07:37:22;14.20;98.10
12632;DHT22;6381;45.748;12.106;2023-04-26T07:39:51;14.10;97.80
12632;DHT22;6381;45.748;12.106;2023-04-26T07:42:20;14.30;98.00
12632;DHT22;6381;45.748;12.106;2023-04-26T07:44:49;14.30;97.40
12632;DHT22;6381;45.748;12.106;2023-04-26T07:47:17;14.50;97.10
12632;DHT22;6381;45.748;12.106;2023-04-26T07:49:46;14.60;97.70
12632;DHT22;6381;45.748;12.106;2023-04-26T07:52:21;14.70;98.10
12632;DHT22;6381;45.748;12.106;2023-04-26T07:54:50;14.90;97.00
12632;DHT22;6381;45.748;12.106;2023-04-26T07:57:19;14.80;96.30
12632;DHT22;6381;45.748;12.106;2023-04-26T07:59:48;14.90;96.20
12632;DHT22;6381;45.748;12.106;2023-04-26T08:02:16;14.90;94.90
12632;DHT22;6381;45.748;12.106;2023-04-26T08:04:51;14.80;94.30
12632;DHT22;6381;45.748;12.106;2023-04-26T08:07:23;15.00;93.50
12632;DHT22;6381;45.748;12.106;2023-04-26T08:09:52;14.90;91.90
12632;DHT22;6381;45.748;12.106;2023-04-26T08:12:21;15.10;91.80
12632;DHT22;6381;45.748;12.106;2023-04-26T08:14:49;15.30;92.30
12632;DHT22;6381;45.748;12.106;2023-04-26T08:17:18;15.40;90.70
12632;DHT22;6381;45.748;12.106;2023-04-26T08:19:47;15.30;88.40
12632;DHT22;6381;45.748;12.106;2023-04-26T08:22:16;15.60;90.00
12632;DHT22;6381;45.748;12.106;2023-04-26T08:24:48;15.60;84.60
12632;DHT22;6381;45.748;12.106;2023-04-26T08:27:17;15.70;83.70
12632;DHT22;6381;45.748;12.106;2023-04-26T08:29:47;15.70;85.20
12632;DHT22;6381;45.748;12.106;2023-04-26T08:32:16;15.80;82.70
12632;DHT22;6381;45.748;12.106;2023-04-26T08:34:44;15.80;82.00
12632;DHT22;6381;45.748;12.106;2023-04-26T08:37:14;15.70;77.20
12632;DHT22;6381;45.748;12.106;2023-04-26T08:39:43;15.90;79.80
12632;DHT22;6381;45.748;12.106;2023-04-26T08:42:16;16.10;79.50
12632;DHT22;6381;45.748;12.106;2023-04-26T08:44:45;16.10;79.60
12632;DHT22;6381;45.748;12.106;2023-04-26T08:47:17;16.20;80.50
12632;DHT22;6381;45.748;12.106;2023-04-26T08:49:50;16.30;81.20
12632;DHT22;6381;45.748;12.106;2023-04-26T08:52:27;16.50;80.90
12632;DHT22;6381;45.748;12.106;2023-04-26T08:54:59;16.50;80.70
12632;DHT22;6381;45.748;12.106;2023-04-26T08:57:31;16.30;73.20
12632;DHT22;6381;45.748;12.106;2023-04-26T09:00:01;16.40;73.60
12632;DHT22;6381;45.748;12.106;2023-04-26T09:02:32;16.30;69.90
12632;DHT22;6381;45.748;12.106;2023-04-26T09:05:02;16.20;70.40
12632;DHT22;6381;45.748;12.106;2023-04-26T09:07:38;16.30;69.20
12632;DHT22;6381;45.748;12.106;2023-04-26T09:10:08;16.70;72.50
12632;DHT22;6381;45.748;12.106;2023-04-26T09:15:09;16.70;66.60
12632;DHT22;6381;45.748;12.106;2023-04-26T09:17:38;16.40;63.00
12632;DHT22;6381;45.748;12.106;2023-04-26T09:20:19;16.70;67.70
12632;DHT22;6381;45.748;12.106;2023-04-26T09:22:50;16.90;69.10
12632;DHT22;6381;45.748;12.106;2023-04-26T09:25:26;16.80;66.10
12632;DHT22;6381;45.748;12.106;2023-04-26T09:27:57;16.80;66.90
12632;DHT22;6381;45.748;12.106;2023-04-26T09:30:27;16.30;64.60
12632;DHT22;6381;45.748;12.106;2023-04-26T09:32:58;16.60;70.00
12632;DHT22;6381;45.748;12.106;2023-04-26T09:35:30;16.70;66.60
12632;DHT22;6381;45.748;12.106;2023-04-26T09:38:01;16.60;67.60
12632;DHT22;6381;45.748;12.106;2023-04-26T09:40:39;17.00;68.80
12632;DHT22;6381;45.748;12.106;2023-04-26T09:43:10;16.70;65.50
12632;DHT22;6381;45.748;12.106;2023-04-26T09:45:44;16.60;66.10
12632;DHT22;6381;45.748;12.106;2023-04-26T09:48:18;17.00;66.00
12632;DHT22;6381;45.748;12.106;2023-04-26T09:50:50;17.10;66.10
12632;DHT22;6381;45.748;12.106;2023-04-26T09:53:28;16.70;65.10
12632;DHT22;6381;45.748;12.106;2023-04-26T09:56:06;16.70;66.10
12632;DHT22;6381;45.748;12.106;2023-04-26T09:58:38;16.50;66.60
12632;DHT22;6381;45.748;12.106;2023-04-26T10:01:07;16.30;67.20
12632;DHT22;6381;45.748;12.106;2023-04-26T10:03:38;16.80;67.30
12632;DHT22;6381;45.748;12.106;2023-04-26T10:06:10;16.80;66.80
12632;DHT22;6381;45.748;12.106;2023-04-26T10:08:40;17.00;67.10
12632;DHT22;6381;45.748;12.106;2023-04-26T10:11:09;16.80;64.50
12632;DHT22;6381;45.748;12.106;2023-04-26T10:13:41;16.80;65.40
12632;DHT22;6381;45.748;12.106;2023-04-26T10:16:11;17.30;68.30
12632;DHT22;6381;45.748;12.106;2023-04-26T10:18:40;17.50;63.60
12632;DHT22;6381;45.748;12.106;2023-04-26T10:21:11;17.40;62.70
12632;DHT22;6381;45.748;12.106;2023-04-26T10:23:42;17.30;60.80
12632;DHT22;6381;45.748;12.106;2023-04-26T10:29:15;17.10;62.70
12632;DHT22;6381;45.748;12.106;2023-04-26T10:32:08;17.40;61.50
12632;DHT22;6381;45.748;12.106;2023-04-26T10:34:43;17.80;62.20
12632;DHT22;6381;45.748;12.106;2023-04-26T10:37:13;17.90;61.90
12632;DHT22;6381;45.748;12.106;2023-04-26T10:39:44;18.20;63.60
12632;DHT22;6381;45.748;12.106;2023-04-26T10:42:24;18.30;65.60
12632;DHT22;6381;45.748;12.106;2023-04-26T10:44:56;18.40;63.70
12632;DHT22;6381;45.748;12.106;2023-04-26T10:47:30;18.30;66.70
12632;DHT22;6381;45.748;12.106;2023-04-26T10:50:07;18.40;60.60
12632;DHT22;6381;45.748;12.106;2023-04-26T10:52:38;17.80;60.20
12632;DHT22;6381;45.748;12.106;2023-04-26T10:55:37;17.60;57.70
12632;DHT22;6381;45.748;12.106;2023-04-26T10:58:25;17.80;57.70
12632;DHT22;6381;45.748;12.106;2023-04-26T11:01:07;18.30;58.10
12632;DHT22;6381;45.748;12.106;2023-04-26T11:03:40;18.70;55.90
12632;DHT22;6381;45.748;12.106;2023-04-26T11:06:10;18.30;57.10
12632;DHT22;6381;45.748;12.106;2023-04-26T11:08:40;18.40;57.70
12632;DHT22;6381;45.748;12.106;2023-04-26T11:13:40;17.70;57.60
12632;DHT22;6381;45.748;12.106;2023-04-26T11:16:12;17.90;58.50
12632;DHT22;6381;45.748;12.106;2023-04-26T11:18:44;18.50;60.40
12632;DHT22;6381;45.748;12.106;2023-04-26T11:21:13;18.60;58.60
12632;DHT22;6381;45.748;12.106;2023-04-26T11:23:55;19.00;58.10
12632;DHT22;6381;45.748;12.106;2023-04-26T11:26:31;19.30;58.10
12632;DHT22;6381;45.748;12.106;2023-04-26T11:29:01;19.40;59.40
12632;DHT22;6381;45.748;12.106;2023-04-26T11:31:33;18.50;55.50
12632;DHT22;6381;45.748;12.106;2023-04-26T11:34:03;19.20;57.40
12632;DHT22;6381;45.748;12.106;2023-04-26T11:36:36;19.30;54.90
12632;DHT22;6381;45.748;12.106;2023-04-26T11:39:06;19.30;55.70
12632;DHT22;6381;45.748;12.106;2023-04-26T11:41:35;19.60;55.90
12632;DHT22;6381;45.748;12.106;2023-04-26T11:44:05;18.30;56.40
12632;DHT22;6381;45.748;12.106;2023-04-26T11:46:36;18.50;57.00
12632;DHT22;6381;45.748;12.106;2023-04-26T11:49:06;18.80;56.50
12632;DHT22;6381;45.748;12.106;2023-04-26T11:51:36;19.10;57.20
12632;DHT22;6381;45.748;12.106;2023-04-26T11:54:05;19.20;53.90
12632;DHT22;6381;45.748;12.106;2023-04-26T11:56:43;21.30;53.40
12632;DHT22;6381;45.748;12.106;2023-04-26T11:59:23;19.00;53.90
12632;DHT22;6381;45.748;12.106;2023-04-26T12:01:53;19.30;53.30
12632;DHT22;6381;45.748;12.106;2023-04-26T12:04:26;18.80;55.00
12632;DHT22;6381;45.748;12.106;2023-04-26T12:06:57;18.40;55.00
12632;DHT22;6381;45.748;12.106;2023-04-26T12:09:27;19.00;54.10
12632;DHT22;6381;45.748;12.106;2023-04-26T12:12:00;19.10;54.10
12632;DHT22;6381;45.748;12.106;2023-04-26T12:14:31;19.90;53.00
12632;DHT22;6381;45.748;12.106;2023-04-26T12:17:01;20.30;52.50
12632;DHT22;6381;45.748;12.106;2023-04-26T12:19:32;20.40;52.10
12632;DHT22;6381;45.748;12.106;2023-04-26T12:22:02;20.50;50.40
12632;DHT22;6381;45.748;12.106;2023-04-26T12:24:31;19.40;53.60
12632;DHT22;6381;45.748;12.106;2023-04-26T12:27:05;20.60;53.20
12632;DHT22;6381;45.748;12.106;2023-04-26T12:29:35;21.40;51.00
12632;DHT22;6381;45.748;12.106;2023-04-26T12:32:06;19.70;50.60
12632;DHT22;6381;45.748;12.106;2023-04-26T12:34:36;21.30;49.20
12632;DHT22;6381;45.748;12.106;2023-04-26T12:37:06;21.20;48.30
12632;DHT22;6381;45.748;12.106;2023-04-26T12:39:35;21.20;48.10
12632;DHT22;6381;45.748;12.106;2023-04-26T12:42:06;20.80;45.80
12632;DHT22;6381;45.748;12.106;2023-04-26T12:44:35;21.10;46.00
12632;DHT22;6381;45.748;12.106;2023-04-26T12:47:05;22.00;45.60
12632;DHT22;6381;45.748;12.106;2023-04-26T12:49:34;22.00;46.00
12632;DHT22;6381;45.748;12.106;2023-04-26T12:52:05;21.70;45.10
12632;DHT22;6381;45.748;12.106;2023-04-26T12:54:34;22.20;45.60
12632;DHT22;6381;45.748;12.106;2023-04-26T12:57:06;21.20;42.70
12632;DHT22;6381;45.748;12.106;2023-04-26T12:59:36;20.20;42.90
12632;DHT22;6381;45.748;12.106;2023-04-26T13:02:06;20.40;43.60
12632;DHT22;6381;45.748;12.106;2023-04-26T13:04:36;20.90;43.50
12632;DHT22;6381;45.748;12.106;2023-04-26T13:07:09;20.20;44.70
12632;DHT22;6381;45.748;12.106;2023-04-26T13:09:39;20.20;45.70
12632;DHT22;6381;45.748;12.106;2023-04-26T13:12:10;19.90;46.00
12632;DHT22;6381;45.748;12.106;2023-04-26T13:14:39;20.40;45.60
12632;DHT22;6381;45.748;12.106;2023-04-26T13:17:08;20.70;44.80
12632;DHT22;6381;45.748;12.106;2023-04-26T13:19:38;20.30;48.10
12632;DHT22;6381;45.748;12.106;2023-04-26T13:22:09;19.90;47.30
12632;DHT22;6381;45.748;12.106;2023-04-26T13:24:39;19.50;48.40
12632;DHT22;6381;45.748;12.106;2023-04-26T13:27:10;19.70;48.10
12632;DHT22;6381;45.748;12.106;2023-04-26T13:29:40;19.50;47.90
12632;DHT22;6381;45.748;12.106;2023-04-26T13:32:10;19.40;48.30
12632;DHT22;6381;45.748;12.106;2023-04-26T13:34:40;19.30;49.50
12632;DHT22;6381;45.748;12.106;2023-04-26T13:37:12;19.30;49.40
12632;DHT22;6381;45.748;12.106;2023-04-26T13:39:44;19.30;49.40
12632;DHT22;6381;45.748;12.106;2023-04-26T13:42:15;19.20;50.60
12632;DHT22;6381;45.748;12.106;2023-04-26T13:44:44;19.90;51.00
12632;DHT22;6381;45.748;12.106;2023-04-26T13:47:14;20.10;48.80
12632;DHT22;6381;45.748;12.106;2023-04-26T13:49:44;20.30;48.80
12632;DHT22;6381;45.748;12.106;2023-04-26T13:52:13;19.40;48.00
12632;DHT22;6381;45.748;12.106;2023-04-26T13:54:43;19.20;47.50
12632;DHT22;6381;45.748;12.106;2023-04-26T13:57:14;19.60;48.50
12632;DHT22;6381;45.748;12.106;2023-04-26T13:59:43;19.60;48.30
12632;DHT22;6381;45.748;12.106;2023-04-26T14:02:13;19.40;50.90
12632;DHT22;6381;45.748;12.106;2023-04-26T14:04:42;19.80;51.80
12632;DHT22;6381;45.748;12.106;2023-04-26T14:07:12;20.10;52.20
12632;DHT22;6381;45.748;12.106;2023-04-26T14:09:41;19.80;52.50
12632;DHT22;6381;45.748;12.106;2023-04-26T14:12:11;20.00;60.50
12632;DHT22;6381;45.748;12.106;2023-04-26T14:14:42;19.80;60.90
12632;DHT22;6381;45.748;12.106;2023-04-26T14:17:13;19.70;64.30
12632;DHT22;6381;45.748;12.106;2023-04-26T14:19:42;19.60;64.60
12632;DHT22;6381;45.748;12.106;2023-04-26T14:22:13;19.40;64.60
12632;DHT22;6381;45.748;12.106;2023-04-26T14:24:44;19.50;63.50
12632;DHT22;6381;45.748;12.106;2023-04-26T14:27:13;19.40;63.70
12632;DHT22;6381;45.748;12.106;2023-04-26T14:29:44;19.20;63.80
12632;DHT22;6381;45.748;12.106;2023-04-26T14:32:14;19.30;64.90
12632;DHT22;6381;45.748;12.106;2023-04-26T14:34:43;19.40;64.10
12632;DHT22;6381;45.748;12.106;2023-04-26T14:37:12;19.00;64.70
12632;DHT22;6381;45.748;12.106;2023-04-26T14:39:42;19.20;65.00
12632;DHT22;6381;45.748;12.106;2023-04-26T14:42:11;19.10;65.30
12632;DHT22;6381;45.748;12.106;2023-04-26T14:44:41;18.70;62.80
12632;DHT22;6381;45.748;12.106;2023-04-26T14:47:14;18.80;64.80
12632;DHT22;6381;45.748;12.106;2023-04-26T14:49:44;19.10;63.40
12632;DHT22;6381;45.748;12.106;2023-04-26T14:52:13;19.10;64.20
12632;DHT22;6381;45.748;12.106;2023-04-26T14:54:43;19.30;65.00
12632;DHT22;6381;45.748;12.106;2023-04-26T14:57:12;20.20;62.00
12632;DHT22;6381;45.748;12.106;2023-04-26T14:59:41;20.90;60.90
12632;DHT22;6381;45.748;12.106;2023-04-26T15:02:11;21.40;58.90
12632;DHT22;6381;45.748;12.106;2023-04-26T15:04:42;20.70;59.30
12632;DHT22;6381;45.748;12.106;2023-04-26T15:07:12;19.90;60.00
12632;DHT22;6381;45.748;12.106;2023-04-26T15:09:58;19.50;62.40
12632;DHT22;6381;45.748;12.106;2023-04-26T15:12:28;19.30;62.90
12632;DHT22;6381;45.748;12.106;2023-04-26T15:14:57;19.30;61.00
12632;DHT22;6381;45.748;12.106;2023-04-26T15:17:27;19.90;59.70
12632;DHT22;6381;45.748;12.106;2023-04-26T15:19:59;20.30;57.30
12632;DHT22;6381;45.748;12.106;2023-04-26T15:22:29;19.60;57.50
12632;DHT22;6381;45.748;12.106;2023-04-26T15:25:04;19.30;58.60
12632;DHT22;6381;45.748;12.106;2023-04-26T15:27:34;19.40;59.50
12632;DHT22;6381;45.748;12.106;2023-04-26T15:30:04;19.40;59.40
12632;DHT22;6381;45.748;12.106;2023-04-26T15:32:34;19.20;58.90
12632;DHT22;6381;45.748;12.106;2023-04-26T15:35:05;19.00;59.10
12632;DHT22;6381;45.748;12.106;2023-04-26T15:37:36;19.10;60.20
12632;DHT22;6381;45.748;12.106;2023-04-26T15:40:06;19.30;61.00
12632;DHT22;6381;45.748;12.106;2023-04-26T15:42:37;19.20;60.00
12632;DHT22;6381;45.748;12.106;2023-04-26T15:45:07;19.10;59.50
12632;DHT22;6381;45.748;12.106;2023-04-26T15:47:37;19.30;60.00
12632;DHT22;6381;45.748;12.106;2023-04-26T15:50:09;19.50;60.80
12632;DHT22;6381;45.748;12.106;2023-04-26T15:52:38;19.20;59.70
12632;DHT22;6381;45.748;12.106;2023-04-26T15:55:09;19.20;60.20
12632;DHT22;6381;45.748;12.106;2023-04-26T15:57:40;19.00;60.50
12632;DHT22;6381;45.748;12.106;2023-04-26T16:00:10;18.90;61.50
12632;DHT22;6381;45.748;12.106;2023-04-26T16:02:41;18.80;61.00
12632;DHT22;6381;45.748;12.106;2023-04-26T16:05:13;18.70;61.00
12632;DHT22;6381;45.748;12.106;2023-04-26T16:07:43;18.60;60.90